createdAt,value
2023-03-05T00:02:20.689Z,10.77
2023-03-05T00:04:47.596Z,6.07
2023-03-05T00:07:14.563Z,6.10
2023-03-05T00:09:41.670Z,12.70
2023-03-05T00:12:11.061Z,10.27
2023-03-05T00:14:38.121Z,6.27
2023-03-05T00:17:05.254Z,7.17
2023-03-05T00:19:32.270Z,7.72
2023-03-05T00:21:59.284Z,8.57
2023-03-05T00:24:26.389Z,10.13
2023-03-05T00:26:53.438Z,7.78
2023-03-05T00:29:22.060Z,5.00
2023-03-05T00:31:49.121Z,9.90
2023-03-05T00:34:19.163Z,8.37
2023-03-05T00:36:47.901Z,6.70
2023-03-05T00:39:15.658Z,8.20
2023-03-05T00:41:42.722Z,12.40
2023-03-05T00:44:10.120Z,6.57
2023-03-05T00:46:38.876Z,6.50
2023-03-05T00:49:06.239Z,32.07
2023-03-05T00:51:33.810Z,19.50
2023-03-05T00:54:00.703Z,9.27
2023-03-05T00:56:27.967Z,6.80
2023-03-05T00:58:55.121Z,7.53
2023-03-05T01:01:22.444Z,8.23
2023-03-05T01:03:51.210Z,5.13
2023-03-05T01:06:18.940Z,8.47
2023-03-05T01:08:46.019Z,7.57
2023-03-05T01:11:13.343Z,7.97
2023-03-05T01:13:40.385Z,8.23
2023-03-05T01:16:07.993Z,14.07
2023-03-05T01:18:35.268Z,11.20
2023-03-05T01:21:04.565Z,11.83
2023-03-05T01:23:31.664Z,6.10
2023-03-05T01:26:00.159Z,9.53
2023-03-05T01:28:27.463Z,9.17
2023-03-05T01:30:54.390Z,8.17
2023-03-05T01:33:21.411Z,5.17
2023-03-05T01:35:49.267Z,5.60
2023-03-05T01:38:18.118Z,5.77
2023-03-05T01:40:45.219Z,3.93
2023-03-05T01:43:27.027Z,7.77
2023-03-05T01:46:22.659Z,12.53
2023-03-05T01:48:52.709Z,7.20
2023-03-05T01:51:22.776Z,6.03
2023-03-05T01:53:52.181Z,7.03
2023-03-05T01:56:19.317Z,9.93
2023-03-05T01:58:46.649Z,8.27
2023-03-05T02:01:13.797Z,7.20
2023-03-05T02:03:42.683Z,20.70
2023-03-05T02:06:10.420Z,6.40
2023-03-05T02:08:37.450Z,9.90
2023-03-05T02:11:06.259Z,8.97
2023-03-05T02:13:35.802Z,6.70
2023-03-05T02:16:03.319Z,6.23
2023-03-05T02:18:30.794Z,6.83
2023-03-05T02:21:03.948Z,5.43
2023-03-05T02:23:33.979Z,7.82
2023-03-05T02:26:01.033Z,10.30
2023-03-05T02:28:33.147Z,6.30
2023-03-05T02:31:00.251Z,11.93
2023-03-05T02:33:27.741Z,10.47
2023-03-05T02:35:54.770Z,8.30
2023-03-05T02:38:23.270Z,10.37
2023-03-05T02:40:50.302Z,9.83
2023-03-05T02:43:17.460Z,10.67
2023-03-05T02:45:44.642Z,9.87
2023-03-05T02:48:11.711Z,8.30
2023-03-05T02:50:39.919Z,13.33
2023-03-05T02:53:07.000Z,14.57
2023-03-05T02:55:35.590Z,12.70
2023-03-05T02:58:02.796Z,13.87
2023-03-05T03:00:29.796Z,13.53
2023-03-05T03:02:56.896Z,16.97
2023-03-05T03:05:24.374Z,15.77
2023-03-05T03:07:52.104Z,14.70
2023-03-05T03:10:19.266Z,14.93
2023-03-05T03:12:47.779Z,16.03
2023-03-05T03:15:16.959Z,17.63
2023-03-05T03:17:44.037Z,15.00
2023-03-05T03:20:15.232Z,19.20
2023-03-05T03:22:43.512Z,15.97
2023-03-05T03:25:13.970Z,17.40
2023-03-05T03:27:41.026Z,17.13
2023-03-05T03:30:11.410Z,14.43
2023-03-05T03:32:38.486Z,15.17
2023-03-05T03:35:06.511Z,15.50
2023-03-05T03:37:33.722Z,16.43
2023-03-05T03:40:00.731Z,13.67
2023-03-05T03:42:27.720Z,8.37
2023-03-05T03:44:54.774Z,11.67
2023-03-05T03:47:23.288Z,10.63
2023-03-05T03:49:53.858Z,9.83
2023-03-05T03:52:23.016Z,11.73
2023-03-05T03:54:50.816Z,8.83
2023-03-05T03:57:17.819Z,9.60
2023-03-05T03:59:46.207Z,9.27
2023-03-05T04:02:13.316Z,9.70
2023-03-05T04:04:41.787Z,8.47
2023-03-05T04:07:09.084Z,14.23
2023-03-05T04:09:36.049Z,11.53
2023-03-05T04:12:03.421Z,10.27
2023-03-05T04:14:30.726Z,12.50
2023-03-05T04:16:57.798Z,9.37
2023-03-05T04:19:24.844Z,9.43
2023-03-05T04:21:53.264Z,7.97
2023-03-05T04:24:20.324Z,9.83
2023-03-05T04:26:47.279Z,7.80
2023-03-05T04:29:14.272Z,9.57
2023-03-05T04:31:41.316Z,8.57
2023-03-05T04:34:08.326Z,9.63
2023-03-05T04:36:35.400Z,10.23
2023-03-05T04:39:04.894Z,11.20
2023-03-05T04:41:32.040Z,9.97
2023-03-05T04:43:59.003Z,12.27
2023-03-05T04:46:26.041Z,10.87
2023-03-05T04:48:53.507Z,11.80
2023-03-05T04:51:20.486Z,13.73
2023-03-05T04:53:47.561Z,12.80
2023-03-05T04:56:16.102Z,11.10
2023-03-05T04:58:43.392Z,7.67
2023-03-05T05:01:10.828Z,8.33
2023-03-05T05:03:37.991Z,11.87
2023-03-05T05:06:05.389Z,10.10
2023-03-05T05:08:32.391Z,8.23
2023-03-05T05:11:01.460Z,5.23
2023-03-05T05:13:31.091Z,5.13
2023-03-05T05:15:58.361Z,4.33
2023-03-05T05:18:26.112Z,3.97
2023-03-05T05:20:53.306Z,5.67
2023-03-05T05:23:20.447Z,5.57
2023-03-05T05:25:56.688Z,3.80
2023-03-05T05:28:23.690Z,5.23
2023-03-05T05:30:52.149Z,4.60
2023-03-05T05:33:19.444Z,7.00
2023-03-05T05:35:46.541Z,6.17
2023-03-05T05:38:14.020Z,5.23
2023-03-05T05:40:41.437Z,5.73
2023-03-05T05:43:08.961Z,7.97
2023-03-05T05:45:38.348Z,7.13
2023-03-05T05:48:07.118Z,5.10
2023-03-05T05:50:34.350Z,5.30
2023-03-05T05:53:01.223Z,7.20
2023-03-05T05:55:28.269Z,7.13
2023-03-05T05:57:55.347Z,8.30
2023-03-05T06:00:23.160Z,5.67
2023-03-05T06:02:50.258Z,6.60
2023-03-05T06:05:18.891Z,5.47
2023-03-05T06:07:46.179Z,4.73
2023-03-05T06:10:13.351Z,6.30
2023-03-05T06:12:40.810Z,4.83
2023-03-05T06:15:09.133Z,5.00
2023-03-05T06:17:36.141Z,5.07
2023-03-05T06:20:04.480Z,4.67
2023-03-05T06:22:36.136Z,3.77
2023-03-05T06:25:03.375Z,3.30
2023-03-05T06:27:30.342Z,3.70
2023-03-05T06:29:57.909Z,5.03
2023-03-05T06:32:24.976Z,3.83
2023-03-05T06:34:52.511Z,4.37
2023-03-05T06:37:19.618Z,3.97
2023-03-05T06:39:48.010Z,4.93
2023-03-05T06:42:17.794Z,3.93
2023-03-05T06:44:47.119Z,4.50
2023-03-05T06:47:15.063Z,3.77
2023-03-05T06:49:42.116Z,6.05
2023-03-05T06:52:10.805Z,3.40
2023-03-05T06:54:38.582Z,4.63
2023-03-05T06:57:07.012Z,4.53
2023-03-05T06:59:34.046Z,10.03
2023-03-05T07:02:01.079Z,8.70
2023-03-05T07:04:28.069Z,7.53
2023-03-05T07:06:55.953Z,6.27
2023-03-05T07:09:22.993Z,6.90
2023-03-05T07:11:49.957Z,6.53
2023-03-05T07:14:18.584Z,5.18
2023-03-05T07:16:45.795Z,4.80
2023-03-05T07:19:12.869Z,4.13
2023-03-05T07:21:40.243Z,6.93
2023-03-05T07:24:08.767Z,3.58
2023-03-05T07:26:36.025Z,4.67
2023-03-05T07:29:03.697Z,10.13
2023-03-05T07:31:32.424Z,11.63
2023-03-05T07:34:01.736Z,4.93
2023-03-05T07:36:29.152Z,7.40
2023-03-05T07:38:56.425Z,5.47
2023-03-05T07:41:23.885Z,3.57
2023-03-05T07:43:53.049Z,5.20
2023-03-05T07:46:22.521Z,5.05
2023-03-05T07:48:52.711Z,3.43
2023-03-05T07:51:20.557Z,6.07
2023-03-05T07:53:49.661Z,4.30
2023-03-05T07:56:21.533Z,4.00
2023-03-05T07:58:48.559Z,3.00
2023-03-05T08:01:15.694Z,3.77
2023-03-05T08:03:43.731Z,1.97
2023-03-05T08:06:12.684Z,5.43
2023-03-05T08:08:39.998Z,3.70
2023-03-05T08:11:09.196Z,2.83
2023-03-05T08:13:36.530Z,2.47
2023-03-05T08:16:06.275Z,2.27
2023-03-05T08:18:33.685Z,5.00
2023-03-05T08:21:01.370Z,3.77
2023-03-05T08:23:29.984Z,6.27
2023-03-05T08:25:57.064Z,6.97
2023-03-05T08:28:24.171Z,4.80
2023-03-05T08:30:51.536Z,2.90
2023-03-05T08:33:18.936Z,3.15
2023-03-05T08:35:46.257Z,2.93
2023-03-05T08:38:13.660Z,3.50
2023-03-05T08:40:43.427Z,4.80
2023-03-05T08:43:10.538Z,7.40
2023-03-05T08:45:39.317Z,10.50
2023-03-05T08:48:07.090Z,7.00
2023-03-05T08:50:38.011Z,8.73
2023-03-05T08:53:05.911Z,5.15
2023-03-05T08:55:33.007Z,5.47
2023-03-05T08:58:01.327Z,5.57
2023-03-05T09:00:28.272Z,3.13
2023-03-05T09:02:55.475Z,3.05
2023-03-05T09:05:22.834Z,2.85
2023-03-05T09:07:49.820Z,14.37
2023-03-05T09:10:18.390Z,2.90
2023-03-05T09:12:45.401Z,7.10
2023-03-05T09:15:14.071Z,2.83
2023-03-05T09:17:42.400Z,2.10
2023-03-05T09:20:13.019Z,1.70
2023-03-05T09:22:40.475Z,2.03
2023-03-05T09:25:09.456Z,2.10
2023-03-05T09:27:37.429Z,1.43
2023-03-05T09:30:06.355Z,2.30
2023-03-05T09:32:34.834Z,1.03
2023-03-05T09:35:01.964Z,3.00
2023-03-05T09:37:29.496Z,9.17
2023-03-05T09:39:57.064Z,8.27
2023-03-05T09:42:45.770Z,4.00
2023-03-05T09:45:23.991Z,7.20
2023-03-05T09:48:04.956Z,5.65
2023-03-05T09:50:39.111Z,4.15
2023-03-05T09:53:21.751Z,2.30
2023-03-05T09:55:52.553Z,1.00
2023-03-05T09:58:28.509Z,2.50
2023-03-05T10:01:00.829Z,1.47
2023-03-05T10:03:35.825Z,1.52
2023-03-05T10:06:11.694Z,4.95
2023-03-05T10:08:46.887Z,1.70
2023-03-05T10:11:34.861Z,1.93
2023-03-05T10:14:02.657Z,2.77
2023-03-05T10:17:01.543Z,2.13
2023-03-05T10:19:58.052Z,1.13
2023-03-05T10:22:28.654Z,1.63
2023-03-05T10:25:19.006Z,3.50
2023-03-05T10:27:50.516Z,2.63
2023-03-05T10:30:34.178Z,4.00
2023-03-05T10:33:14.977Z,4.47
2023-03-05T10:36:17.372Z,7.10
2023-03-05T10:39:08.503Z,6.53
2023-03-05T10:41:44.156Z,4.68
2023-03-05T10:44:16.732Z,4.07
2023-03-05T10:46:46.808Z,1.95
2023-03-05T10:49:20.146Z,2.33
2023-03-05T10:51:54.768Z,4.18
2023-03-05T10:54:29.853Z,2.03
2023-03-05T10:57:04.798Z,3.40
2023-03-05T10:59:32.700Z,1.65
2023-03-05T11:02:05.650Z,3.45
2023-03-05T11:04:36.316Z,5.13
2023-03-05T11:07:08.770Z,1.98
2023-03-05T11:09:37.166Z,1.60
2023-03-05T11:12:14.355Z,1.13
2023-03-05T11:14:44.852Z,2.70
2023-03-05T11:17:29.081Z,2.50
2023-03-05T11:22:24.428Z,3.17
2023-03-05T11:25:15.284Z,3.73
2023-03-05T11:27:51.991Z,11.77
2023-03-05T11:30:22.077Z,3.75
2023-03-05T11:32:49.193Z,4.60
2023-03-05T11:35:31.290Z,3.58
2023-03-05T11:38:02.646Z,6.85
2023-03-05T11:40:35.867Z,2.90
2023-03-05T11:43:04.454Z,4.28
2023-03-05T11:45:33.229Z,3.30
2023-03-05T11:48:07.076Z,17.02
2023-03-05T11:50:35.904Z,5.80
2023-03-05T11:53:07.812Z,2.03
2023-03-05T11:55:40.499Z,3.88
2023-03-05T11:58:26.602Z,6.63
2023-03-05T12:00:54.082Z,5.22
2023-03-05T12:03:23.272Z,5.88
2023-03-05T12:05:53.653Z,4.13
2023-03-05T12:08:27.416Z,3.58
2023-03-05T12:10:56.501Z,3.88
2023-03-05T12:13:29.074Z,2.65
2023-03-05T12:16:15.802Z,4.00
2023-03-05T12:18:52.753Z,1.02
2023-03-05T12:21:32.935Z,1.05
2023-03-05T12:24:03.702Z,3.05
2023-03-05T12:26:57.996Z,2.88
2023-03-05T12:29:37.692Z,2.97
2023-03-05T12:32:06.645Z,1.13
2023-03-05T12:34:48.792Z,3.90
2023-03-05T12:37:48.995Z,2.88
2023-03-05T12:40:24.098Z,3.33
2023-03-05T12:42:58.130Z,4.72
2023-03-05T12:45:34.658Z,2.42
2023-03-05T12:48:39.078Z,3.95
2023-03-05T12:51:06.152Z,2.20
2023-03-05T12:53:33.208Z,4.25
2023-03-05T12:56:04.152Z,3.28
2023-03-05T12:58:42.292Z,4.43
2023-03-05T13:01:23.800Z,6.18
2023-03-05T13:03:55.082Z,3.88
2023-03-05T13:06:28.604Z,4.20
2023-03-05T13:09:01.329Z,3.97
2023-03-05T13:11:30.104Z,3.28
2023-03-05T13:13:58.851Z,6.97
2023-03-05T13:16:31.610Z,5.88
2023-03-05T13:19:01.552Z,10.13
2023-03-05T13:21:30.862Z,2.70
2023-03-05T13:24:00.678Z,4.17
2023-03-05T13:26:28.628Z,6.20
2023-03-05T13:29:07.216Z,2.90
2023-03-05T13:31:36.052Z,4.55
2023-03-05T13:34:11.803Z,4.23
2023-03-05T13:36:40.077Z,10.67
2023-03-05T13:39:07.652Z,6.38
2023-03-05T13:41:34.786Z,4.67
2023-03-05T13:44:04.131Z,3.67
2023-03-05T13:46:33.288Z,4.75
2023-03-05T13:49:19.070Z,5.45
2023-03-05T13:51:47.615Z,5.67
2023-03-05T13:54:17.795Z,6.32
2023-03-05T13:56:56.632Z,5.47
2023-03-05T13:59:26.570Z,6.43
2023-03-05T14:01:54.142Z,5.03
2023-03-05T14:04:23.773Z,3.67
2023-03-05T14:06:55.546Z,7.60
2023-03-05T14:09:25.105Z,6.45
2023-03-05T14:11:57.765Z,5.65
2023-03-05T14:14:27.398Z,6.20
2023-03-05T14:16:54.740Z,9.50
2023-03-05T14:19:36.953Z,10.77
2023-03-05T14:22:05.035Z,7.47
2023-03-05T14:24:33.401Z,9.25
2023-03-05T14:27:05.732Z,8.77
2023-03-05T14:29:35.168Z,7.77
2023-03-05T14:32:06.039Z,10.33
2023-03-05T14:34:36.189Z,6.60
2023-03-05T14:37:05.984Z,12.53
2023-03-05T14:39:46.277Z,7.70
2023-03-05T14:42:28.563Z,7.07
2023-03-05T14:44:58.585Z,14.40
2023-03-05T14:47:26.603Z,7.90
2023-03-05T14:49:54.158Z,11.60
2023-03-05T14:52:23.899Z,17.80
2023-03-05T14:54:52.061Z,12.23
2023-03-05T14:57:21.356Z,7.03
2023-03-05T14:59:48.399Z,6.38
2023-03-05T15:02:18.540Z,9.82
2023-03-05T15:04:46.635Z,9.50
2023-03-05T15:07:19.103Z,10.73
2023-03-05T15:09:46.231Z,10.10
2023-03-05T15:12:15.298Z,8.07
2023-03-05T15:14:43.514Z,10.97
2023-03-05T15:17:16.858Z,8.85
2023-03-05T15:19:45.928Z,8.60
2023-03-05T15:22:13.602Z,11.20
2023-03-05T15:24:40.791Z,9.38
2023-03-05T15:27:08.274Z,15.50
2023-03-05T15:29:35.366Z,7.87
2023-03-05T15:32:02.677Z,11.07
2023-03-05T15:34:30.067Z,12.05
2023-03-05T15:36:58.420Z,13.88
2023-03-05T15:39:26.400Z,8.20
2023-03-05T15:41:54.088Z,9.27
2023-03-05T15:44:21.534Z,13.40
2023-03-05T15:46:48.603Z,10.83
2023-03-05T15:49:15.863Z,9.05
2023-03-05T15:51:43.050Z,8.87
2023-03-05T15:54:11.471Z,27.30
2023-03-05T15:56:38.532Z,13.37
2023-03-05T15:59:06.055Z,14.53
2023-03-05T16:01:33.176Z,10.97
2023-03-05T16:04:00.443Z,12.35
2023-03-05T16:06:27.983Z,13.03
2023-03-05T16:09:00.169Z,13.63
2023-03-05T16:11:29.602Z,10.67
2023-03-05T16:13:57.475Z,14.20
2023-03-05T16:16:25.489Z,13.60
2023-03-05T16:18:53.735Z,13.32
2023-03-05T16:21:21.035Z,19.65
2023-03-05T16:23:49.791Z,26.43
2023-03-05T16:26:17.072Z,15.50
2023-03-05T16:28:45.477Z,12.80
2023-03-05T16:31:12.513Z,14.20
2023-03-05T16:33:39.687Z,12.30
2023-03-05T16:36:22.492Z,14.83
2023-03-05T16:38:51.179Z,19.23
2023-03-05T16:41:18.765Z,17.03
2023-03-05T16:43:47.718Z,12.67
2023-03-05T16:46:15.031Z,12.77
2023-03-05T16:48:42.722Z,12.63
2023-03-05T16:51:11.324Z,17.80
2023-03-05T16:53:39.383Z,17.03
2023-03-05T16:58:58.317Z,15.10
2023-03-05T17:01:25.888Z,14.60
2023-03-05T17:03:53.757Z,13.57
2023-03-05T17:06:22.945Z,27.60
2023-03-05T17:08:50.691Z,27.83
2023-03-05T17:11:18.522Z,28.33
2023-03-05T17:13:49.013Z,20.80
2023-03-05T17:16:19.608Z,23.67
2023-03-05T17:18:46.816Z,21.47
2023-03-05T17:21:14.721Z,19.93
2023-03-05T17:23:42.908Z,19.53
2023-03-05T17:26:12.038Z,25.23
2023-03-05T17:28:40.724Z,25.20
2023-03-05T17:33:48.535Z,22.50
2023-03-05T17:36:17.467Z,27.47
2023-03-05T17:38:45.458Z,22.80
2023-03-05T17:41:12.464Z,23.35
2023-03-05T17:43:39.618Z,27.53
2023-03-05T17:46:06.998Z,26.10
2023-03-05T17:48:34.567Z,27.00
2023-03-05T17:51:02.956Z,26.03
2023-03-05T17:53:29.913Z,21.13
2023-03-05T17:55:56.938Z,34.80
2023-03-05T17:58:23.899Z,37.53
2023-03-05T18:00:50.974Z,24.60
2023-03-05T18:03:17.989Z,29.43
2023-03-05T18:05:45.024Z,26.90
2023-03-05T18:08:13.449Z,28.37
2023-03-05T18:10:40.408Z,32.00
2023-03-05T18:13:07.754Z,32.10
2023-03-05T18:15:35.017Z,32.43
2023-03-05T18:18:02.164Z,26.80
2023-03-05T18:20:31.609Z,29.43
2023-03-05T18:22:59.527Z,24.27
2023-03-05T18:25:32.805Z,22.37
2023-03-05T18:28:01.287Z,29.25
2023-03-05T18:30:29.334Z,32.73
2023-03-05T18:32:56.951Z,25.07
2023-03-05T18:35:24.664Z,28.23
2023-03-05T18:37:52.034Z,28.20
2023-03-05T18:40:21.420Z,30.53
2023-03-05T18:42:50.179Z,32.30
2023-03-05T18:45:19.720Z,26.60
2023-03-05T18:47:47.054Z,29.90
2023-03-05T18:50:16.882Z,31.77
2023-03-05T18:52:44.118Z,31.00
2023-03-05T18:55:14.707Z,27.37
2023-03-05T18:57:41.715Z,28.47
2023-03-05T19:00:13.108Z,35.67
2023-03-05T19:02:40.188Z,30.80
2023-03-05T19:05:07.730Z,33.83
2023-03-05T19:07:35.415Z,37.53
2023-03-05T19:10:07.340Z,34.43
2023-03-05T19:13:10.757Z,35.27
2023-03-05T19:15:40.861Z,27.20
2023-03-05T19:18:07.928Z,38.57
2023-03-05T19:20:34.883Z,34.93
2023-03-05T19:23:01.879Z,35.90
2023-03-05T19:25:29.066Z,31.40
2023-03-05T19:27:56.030Z,29.33
2023-03-05T19:30:23.281Z,33.00
2023-03-05T19:32:51.732Z,32.77
2023-03-05T19:35:19.114Z,32.67
2023-03-05T19:37:46.204Z,39.03
2023-03-05T19:40:14.439Z,30.67
2023-03-05T19:42:41.486Z,31.97
2023-03-05T19:45:09.841Z,30.87
2023-03-05T19:47:37.173Z,41.60
2023-03-05T19:50:07.236Z,39.13
2023-03-05T19:52:34.260Z,38.27
2023-03-05T19:55:01.143Z,44.00
2023-03-05T19:57:28.360Z,43.13
2023-03-05T19:59:55.347Z,50.37
2023-03-05T20:02:22.658Z,36.40
2023-03-05T20:04:50.033Z,38.63
2023-03-05T20:07:18.802Z,41.13
2023-03-05T20:09:45.867Z,44.10
2023-03-05T20:12:13.041Z,41.60
2023-03-05T20:14:40.076Z,41.17
2023-03-05T20:17:07.017Z,49.03
2023-03-05T20:19:34.110Z,45.90
2023-03-05T20:22:01.100Z,43.90
2023-03-05T20:24:29.506Z,43.73
2023-03-05T20:26:56.614Z,41.43
2023-03-05T20:29:23.826Z,33.73
2023-03-05T20:31:53.308Z,38.00
2023-03-05T20:34:24.814Z,43.90
2023-03-05T20:36:51.956Z,40.53
2023-03-05T20:39:19.013Z,37.67
2023-03-05T20:41:48.658Z,35.17
2023-03-05T20:44:19.072Z,37.83
2023-03-05T20:47:46.291Z,34.23
2023-03-05T20:50:16.442Z,41.17
2023-03-05T20:52:47.603Z,37.80
2023-03-05T20:55:14.684Z,50.87
2023-03-05T20:57:44.176Z,40.13
2023-03-05T21:00:12.716Z,49.10
2023-03-05T21:02:40.803Z,46.50
2023-03-05T21:05:08.649Z,42.27
2023-03-05T21:07:35.759Z,43.47
2023-03-05T21:10:02.971Z,41.07
2023-03-05T21:12:32.153Z,37.67
2023-03-05T21:15:00.535Z,42.53
2023-03-05T21:17:27.594Z,37.53
2023-03-05T21:19:54.561Z,39.57
2023-03-05T21:22:21.715Z,36.23
2023-03-05T21:25:22.325Z,40.87
2023-03-05T21:27:50.837Z,41.87
2023-03-05T21:30:20.426Z,52.17
2023-03-05T21:32:48.106Z,38.13
2023-03-05T21:35:19.407Z,41.37
2023-03-05T21:37:46.958Z,39.70
2023-03-05T21:40:15.856Z,42.67
2023-03-05T21:42:43.359Z,50.00
2023-03-05T21:45:12.156Z,41.93
2023-03-05T21:47:40.663Z,35.70
2023-03-05T21:50:08.803Z,44.67
2023-03-05T21:52:35.775Z,38.27
2023-03-05T21:55:02.942Z,41.47
2023-03-05T21:57:30.376Z,36.30
2023-03-05T21:59:57.326Z,37.33
2023-03-05T22:02:24.421Z,46.03
2023-03-05T22:04:52.865Z,41.23
2023-03-05T22:07:20.067Z,36.00
2023-03-05T22:09:47.149Z,34.77
2023-03-05T22:13:09.101Z,35.13
2023-03-05T22:15:42.473Z,31.13
2023-03-05T22:18:09.989Z,34.60
2023-03-05T22:20:38.630Z,38.23
2023-03-05T22:23:06.090Z,40.27
2023-03-05T22:25:33.118Z,34.13
2023-03-05T22:28:00.096Z,33.40
2023-03-05T22:30:27.460Z,29.77
2023-03-05T22:32:54.591Z,35.97
2023-03-05T22:35:22.560Z,35.77
2023-03-05T22:37:51.078Z,32.40
2023-03-05T22:40:19.977Z,33.73
2023-03-05T22:42:47.408Z,38.67
2023-03-05T22:45:16.970Z,31.80
2023-03-05T22:47:47.553Z,32.80
2023-03-05T22:50:14.856Z,31.53
2023-03-05T22:52:41.808Z,32.17
2023-03-05T22:55:12.132Z,31.43
2023-03-05T22:57:39.018Z,35.87
2023-03-05T23:00:09.298Z,38.70
2023-03-05T23:02:36.318Z,33.67
2023-03-05T23:05:03.584Z,31.13
2023-03-05T23:07:33.522Z,36.43
2023-03-05T23:10:02.758Z,35.67
2023-03-05T23:12:33.811Z,33.17
2023-03-05T23:15:02.151Z,34.57
2023-03-05T23:17:29.175Z,32.70
2023-03-05T23:19:56.168Z,30.83
2023-03-05T23:22:23.245Z,35.83
2023-03-05T23:24:50.257Z,34.23
2023-03-05T23:27:18.759Z,44.57
2023-03-05T23:30:17.200Z,39.10
2023-03-05T23:32:46.582Z,28.70
2023-03-05T23:35:15.928Z,32.87
2023-03-05T23:37:43.072Z,32.83
2023-03-05T23:40:14.472Z,30.47
2023-03-05T23:42:42.280Z,33.40
2023-03-05T23:45:11.329Z,31.87
2023-03-05T23:47:40.086Z,31.07
2023-03-05T23:50:12.713Z,34.90
2023-03-05T23:52:39.672Z,35.87
2023-03-05T23:55:07.537Z,35.20
2023-03-05T23:57:34.751Z,33.67
